sensor_id;sensor_type;location;lat;lon;timestamp;P1;durP1;ratioP1;P2;durP2;ratioP2
15261;SDS011;7733;51.554;13.590;2023-05-07T00:00:02;8.63;;;8.03;;
15261;SDS011;7733;51.554;13.590;2023-05-07T00:02:34;9.97;;;9.17;;
15261;SDS011;7733;51.554;13.590;2023-05-07T00:05:01;8.77;;;8.17;;
15261;SDS011;7733;51.554;13.590;2023-05-07T00:07:27;8.57;;;7.90;;
15261;SDS011;7733;51.554;13.590;2023-05-07T00:09:53;8.23;;;7.50;;
15261;SDS011;7733;51.554;13.590;2023-05-07T00:12:19;8.77;;;8.13;;
15261;SDS011;7733;51.554;13.590;2023-05-07T00:14:45;8.90;;;8.30;;
15261;SDS011;7733;51.554;13.590;2023-05-07T00:17:11;9.10;;;8.40;;
15261;SDS011;7733;51.554;13.590;2023-05-07T00:19:37;9.33;;;8.63;;
15261;SDS011;7733;51.554;13.590;2023-05-07T00:22:02;8.97;;;8.37;;
15261;SDS011;7733;51.554;13.590;2023-05-07T00:24:28;7.93;;;7.33;;
15261;SDS011;7733;51.554;13.590;2023-05-07T00:26:54;9.07;;;8.30;;
15261;SDS011;7733;51.554;13.590;2023-05-07T00:29:20;8.53;;;7.83;;
15261;SDS011;7733;51.554;13.590;2023-05-07T00:31:45;9.03;;;8.13;;
15261;SDS011;7733;51.554;13.590;2023-05-07T00:34:11;8.80;;;8.00;;
15261;SDS011;7733;51.554;13.590;2023-05-07T00:36:37;9.67;;;8.87;;
15261;SDS011;7733;51.554;13.590;2023-05-07T00:39:02;9.53;;;8.67;;
15261;SDS011;7733;51.554;13.590;2023-05-07T00:41:29;9.87;;;9.07;;
15261;SDS011;7733;51.554;13.590;2023-05-07T00:43:56;10.00;;;9.10;;
15261;SDS011;7733;51.554;13.590;2023-05-07T00:46:21;8.83;;;8.13;;
15261;SDS011;7733;51.554;13.590;2023-05-07T00:48:49;9.50;;;8.60;;
15261;SDS011;7733;51.554;13.590;2023-05-07T00:51:16;9.27;;;8.50;;
15261;SDS011;7733;51.554;13.590;2023-05-07T00:53:43;9.13;;;8.33;;
15261;SDS011;7733;51.554;13.590;2023-05-07T00:56:09;9.13;;;8.33;;
15261;SDS011;7733;51.554;13.590;2023-05-07T00:58:36;9.30;;;8.47;;
15261;SDS011;7733;51.554;13.590;2023-05-07T01:01:02;9.23;;;8.43;;
15261;SDS011;7733;51.554;13.590;2023-05-07T01:03:28;9.87;;;9.07;;
15261;SDS011;7733;51.554;13.590;2023-05-07T01:05:54;9.47;;;8.70;;
15261;SDS011;7733;51.554;13.590;2023-05-07T01:08:23;9.17;;;8.37;;
15261;SDS011;7733;51.554;13.590;2023-05-07T01:10:51;9.00;;;8.10;;
15261;SDS011;7733;51.554;13.590;2023-05-07T01:13:19;8.73;;;8.13;;
15261;SDS011;7733;51.554;13.590;2023-05-07T01:15:46;8.73;;;8.10;;
15261;SDS011;7733;51.554;13.590;2023-05-07T01:18:11;9.13;;;8.43;;
15261;SDS011;7733;51.554;13.590;2023-05-07T01:20:38;8.87;;;8.17;;
15261;SDS011;7733;51.554;13.590;2023-05-07T01:23:04;9.50;;;8.60;;
15261;SDS011;7733;51.554;13.590;2023-05-07T01:25:31;8.07;;;7.37;;
15261;SDS011;7733;51.554;13.590;2023-05-07T01:27:58;9.10;;;8.40;;
15261;SDS011;7733;51.554;13.590;2023-05-07T01:30:27;9.03;;;8.43;;
15261;SDS011;7733;51.554;13.590;2023-05-07T01:33:02;9.07;;;8.23;;
15261;SDS011;7733;51.554;13.590;2023-05-07T01:35:52;8.47;;;7.83;;
15261;SDS011;7733;51.554;13.590;2023-05-07T01:38:19;8.50;;;7.80;;
15261;SDS011;7733;51.554;13.590;2023-05-07T01:40:48;7.70;;;7.20;;
15261;SDS011;7733;51.554;13.590;2023-05-07T01:43:14;8.53;;;7.73;;
15261;SDS011;7733;51.554;13.590;2023-05-07T01:45:40;7.90;;;7.40;;
15261;SDS011;7733;51.554;13.590;2023-05-07T01:48:07;8.27;;;7.67;;
15261;SDS011;7733;51.554;13.590;2023-05-07T01:50:36;7.57;;;7.07;;
15261;SDS011;7733;51.554;13.590;2023-05-07T01:53:03;7.97;;;7.33;;
15261;SDS011;7733;51.554;13.590;2023-05-07T01:55:28;7.97;;;7.37;;
15261;SDS011;7733;51.554;13.590;2023-05-07T01:57:54;7.80;;;7.20;;
15261;SDS011;7733;51.554;13.590;2023-05-07T02:00:20;7.27;;;6.77;;
15261;SDS011;7733;51.554;13.590;2023-05-07T02:02:46;7.47;;;6.87;;
15261;SDS011;7733;51.554;13.590;2023-05-07T02:05:12;7.03;;;6.43;;
15261;SDS011;7733;51.554;13.590;2023-05-07T02:07:37;6.20;;;5.80;;
15261;SDS011;7733;51.554;13.590;2023-05-07T02:10:03;6.60;;;6.20;;
15261;SDS011;7733;51.554;13.590;2023-05-07T02:12:30;6.87;;;6.37;;
15261;SDS011;7733;51.554;13.590;2023-05-07T02:14:55;6.07;;;5.67;;
15261;SDS011;7733;51.554;13.590;2023-05-07T02:17:21;6.13;;;5.73;;
15261;SDS011;7733;51.554;13.590;2023-05-07T02:19:47;7.00;;;6.50;;
15261;SDS011;7733;51.554;13.590;2023-05-07T02:22:12;6.53;;;6.07;;
15261;SDS011;7733;51.554;13.590;2023-05-07T02:24:38;6.63;;;6.13;;
15261;SDS011;7733;51.554;13.590;2023-05-07T02:27:04;6.17;;;5.77;;
15261;SDS011;7733;51.554;13.590;2023-05-07T02:29:30;6.40;;;6.00;;
15261;SDS011;7733;51.554;13.590;2023-05-07T02:31:55;5.93;;;5.53;;
15261;SDS011;7733;51.554;13.590;2023-05-07T02:34:21;6.43;;;6.03;;
15261;SDS011;7733;51.554;13.590;2023-05-07T02:36:47;6.13;;;5.73;;
15261;SDS011;7733;51.554;13.590;2023-05-07T02:39:13;6.37;;;5.97;;
15261;SDS011;7733;51.554;13.590;2023-05-07T02:41:40;5.67;;;5.27;;
15261;SDS011;7733;51.554;13.590;2023-05-07T02:44:06;5.93;;;5.53;;
15261;SDS011;7733;51.554;13.590;2023-05-07T02:46:31;5.67;;;5.37;;
15261;SDS011;7733;51.554;13.590;2023-05-07T02:48:58;6.07;;;5.67;;
15261;SDS011;7733;51.554;13.590;2023-05-07T02:51:23;6.37;;;5.97;;
15261;SDS011;7733;51.554;13.590;2023-05-07T02:53:51;5.90;;;5.50;;
15261;SDS011;7733;51.554;13.590;2023-05-07T02:56:17;5.63;;;5.33;;
15261;SDS011;7733;51.554;13.590;2023-05-07T02:58:43;5.63;;;5.33;;
15261;SDS011;7733;51.554;13.590;2023-05-07T03:01:09;5.80;;;5.30;;
15261;SDS011;7733;51.554;13.590;2023-05-07T03:03:34;5.93;;;5.53;;
15261;SDS011;7733;51.554;13.590;2023-05-07T03:06:00;5.87;;;5.57;;
15261;SDS011;7733;51.554;13.590;2023-05-07T03:08:27;5.80;;;5.40;;
15261;SDS011;7733;51.554;13.590;2023-05-07T03:10:52;5.40;;;5.10;;
15261;SDS011;7733;51.554;13.590;2023-05-07T03:13:18;5.50;;;5.20;;
15261;SDS011;7733;51.554;13.590;2023-05-07T03:15:44;5.23;;;4.93;;
15261;SDS011;7733;51.554;13.590;2023-05-07T03:18:10;5.77;;;5.30;;
15261;SDS011;7733;51.554;13.590;2023-05-07T03:20:36;5.07;;;4.83;;
15261;SDS011;7733;51.554;13.590;2023-05-07T03:23:02;5.40;;;5.10;;
15261;SDS011;7733;51.554;13.590;2023-05-07T03:25:28;5.00;;;4.70;;
15261;SDS011;7733;51.554;13.590;2023-05-07T03:27:55;5.80;;;5.30;;
15261;SDS011;7733;51.554;13.590;2023-05-07T03:30:21;4.90;;;4.60;;
15261;SDS011;7733;51.554;13.590;2023-05-07T03:32:47;5.00;;;4.70;;
15261;SDS011;7733;51.554;13.590;2023-05-07T03:35:13;5.03;;;4.80;;
15261;SDS011;7733;51.554;13.590;2023-05-07T03:37:39;4.70;;;4.50;;
15261;SDS011;7733;51.554;13.590;2023-05-07T03:40:05;4.60;;;4.30;;
15261;SDS011;7733;51.554;13.590;2023-05-07T03:42:33;4.47;;;4.27;;
15261;SDS011;7733;51.554;13.590;2023-05-07T03:44:58;4.43;;;4.23;;
15261;SDS011;7733;51.554;13.590;2023-05-07T03:47:24;5.20;;;4.90;;
15261;SDS011;7733;51.554;13.590;2023-05-07T03:49:50;4.30;;;4.10;;
15261;SDS011;7733;51.554;13.590;2023-05-07T03:52:17;4.83;;;4.50;;
15261;SDS011;7733;51.554;13.590;2023-05-07T03:54:48;4.93;;;4.70;;
15261;SDS011;7733;51.554;13.590;2023-05-07T03:57:14;5.20;;;4.87;;
15261;SDS011;7733;51.554;13.590;2023-05-07T03:59:40;5.17;;;4.70;;
15261;SDS011;7733;51.554;13.590;2023-05-07T04:02:06;5.30;;;5.00;;
15261;SDS011;7733;51.554;13.590;2023-05-07T04:04:31;4.90;;;4.67;;
15261;SDS011;7733;51.554;13.590;2023-05-07T04:06:57;4.77;;;4.47;;
15261;SDS011;7733;51.554;13.590;2023-05-07T04:09:24;5.13;;;4.83;;
15261;SDS011;7733;51.554;13.590;2023-05-07T04:11:50;5.40;;;5.00;;
15261;SDS011;7733;51.554;13.590;2023-05-07T04:14:16;5.47;;;5.07;;
15261;SDS011;7733;51.554;13.590;2023-05-07T04:16:42;5.13;;;4.83;;
15261;SDS011;7733;51.554;13.590;2023-05-07T04:19:07;4.90;;;4.60;;
15261;SDS011;7733;51.554;13.590;2023-05-07T04:21:33;5.63;;;5.20;;
15261;SDS011;7733;51.554;13.590;2023-05-07T04:23:59;5.07;;;4.77;;
15261;SDS011;7733;51.554;13.590;2023-05-07T04:26:25;5.00;;;4.70;;
15261;SDS011;7733;51.554;13.590;2023-05-07T04:28:51;4.60;;;4.30;;
15261;SDS011;7733;51.554;13.590;2023-05-07T04:31:16;4.73;;;4.53;;
15261;SDS011;7733;51.554;13.590;2023-05-07T04:33:42;5.10;;;4.77;;
15261;SDS011;7733;51.554;13.590;2023-05-07T04:36:08;5.20;;;4.80;;
15261;SDS011;7733;51.554;13.590;2023-05-07T04:38:34;5.27;;;4.97;;
15261;SDS011;7733;51.554;13.590;2023-05-07T04:41:03;5.20;;;4.90;;
15261;SDS011;7733;51.554;13.590;2023-05-07T04:43:31;5.37;;;5.10;;
15261;SDS011;7733;51.554;13.590;2023-05-07T04:45:57;5.73;;;5.23;;
15261;SDS011;7733;51.554;13.590;2023-05-07T04:48:23;5.63;;;5.33;;
15261;SDS011;7733;51.554;13.590;2023-05-07T04:50:52;5.83;;;5.53;;
15261;SDS011;7733;51.554;13.590;2023-05-07T04:53:18;6.37;;;5.93;;
15261;SDS011;7733;51.554;13.590;2023-05-07T04:55:45;6.00;;;5.60;;
15261;SDS011;7733;51.554;13.590;2023-05-07T04:58:11;6.40;;;5.90;;
15261;SDS011;7733;51.554;13.590;2023-05-07T05:00:37;6.60;;;6.20;;
15261;SDS011;7733;51.554;13.590;2023-05-07T05:03:07;8.37;;;7.77;;
15261;SDS011;7733;51.554;13.590;2023-05-07T05:05:33;7.00;;;6.60;;
15261;SDS011;7733;51.554;13.590;2023-05-07T05:07:59;8.13;;;7.53;;
15261;SDS011;7733;51.554;13.590;2023-05-07T05:10:24;11.87;;;10.77;;
15261;SDS011;7733;51.554;13.590;2023-05-07T05:12:50;9.63;;;8.73;;
15261;SDS011;7733;51.554;13.590;2023-05-07T05:15:16;8.77;;;7.90;;
15261;SDS011;7733;51.554;13.590;2023-05-07T05:17:42;10.70;;;9.80;;
15261;SDS011;7733;51.554;13.590;2023-05-07T05:20:08;11.70;;;10.80;;
15261;SDS011;7733;51.554;13.590;2023-05-07T05:22:37;10.73;;;9.83;;
15261;SDS011;7733;51.554;13.590;2023-05-07T05:25:04;12.43;;;11.43;;
15261;SDS011;7733;51.554;13.590;2023-05-07T05:27:30;10.17;;;9.40;;
15261;SDS011;7733;51.554;13.590;2023-05-07T05:29:55;8.73;;;7.80;;
15261;SDS011;7733;51.554;13.590;2023-05-07T05:32:21;8.87;;;8.27;;
15261;SDS011;7733;51.554;13.590;2023-05-07T05:34:47;9.00;;;8.40;;
15261;SDS011;7733;51.554;13.590;2023-05-07T05:37:13;9.53;;;8.83;;
15261;SDS011;7733;51.554;13.590;2023-05-07T05:39:39;9.07;;;8.37;;
15261;SDS011;7733;51.554;13.590;2023-05-07T05:42:04;8.70;;;8.17;;
15261;SDS011;7733;51.554;13.590;2023-05-07T05:44:30;8.73;;;8.13;;
15261;SDS011;7733;51.554;13.590;2023-05-07T05:46:56;8.77;;;8.07;;
15261;SDS011;7733;51.554;13.590;2023-05-07T05:49:24;8.97;;;8.37;;
15261;SDS011;7733;51.554;13.590;2023-05-07T05:51:50;8.60;;;7.90;;
15261;SDS011;7733;51.554;13.590;2023-05-07T05:54:16;8.90;;;8.17;;
15261;SDS011;7733;51.554;13.590;2023-05-07T05:56:42;9.30;;;8.60;;
15261;SDS011;7733;51.554;13.590;2023-05-07T05:59:08;8.37;;;7.77;;
15261;SDS011;7733;51.554;13.590;2023-05-07T06:01:33;8.80;;;8.13;;
15261;SDS011;7733;51.554;13.590;2023-05-07T06:03:59;8.77;;;7.97;;
15261;SDS011;7733;51.554;13.590;2023-05-07T06:06:25;8.73;;;8.03;;
15261;SDS011;7733;51.554;13.590;2023-05-07T06:08:51;8.80;;;8.13;;
15261;SDS011;7733;51.554;13.590;2023-05-07T06:11:16;8.90;;;8.27;;
15261;SDS011;7733;51.554;13.590;2023-05-07T06:13:42;9.73;;;8.73;;
15261;SDS011;7733;51.554;13.590;2023-05-07T06:16:08;9.23;;;8.57;;
15261;SDS011;7733;51.554;13.590;2023-05-07T06:18:33;8.17;;;7.67;;
15261;SDS011;7733;51.554;13.590;2023-05-07T06:21:01;9.20;;;8.50;;
15261;SDS011;7733;51.554;13.590;2023-05-07T06:23:27;8.20;;;7.70;;
15261;SDS011;7733;51.554;13.590;2023-05-07T06:25:53;8.37;;;7.80;;
15261;SDS011;7733;51.554;13.590;2023-05-07T06:28:18;8.30;;;7.80;;
15261;SDS011;7733;51.554;13.590;2023-05-07T06:30:44;8.53;;;7.93;;
15261;SDS011;7733;51.554;13.590;2023-05-07T06:33:10;8.50;;;7.90;;
15261;SDS011;7733;51.554;13.590;2023-05-07T06:35:36;8.07;;;7.47;;
15261;SDS011;7733;51.554;13.590;2023-05-07T06:38:02;6.93;;;6.57;;
15261;SDS011;7733;51.554;13.590;2023-05-07T06:40:27;7.73;;;7.23;;
15261;SDS011;7733;51.554;13.590;2023-05-07T06:42:53;7.90;;;7.40;;
15261;SDS011;7733;51.554;13.590;2023-05-07T06:45:19;8.20;;;7.50;;
15261;SDS011;7733;51.554;13.590;2023-05-07T06:47:45;7.87;;;7.37;;
15261;SDS011;7733;51.554;13.590;2023-05-07T06:50:11;7.50;;;7.00;;
15261;SDS011;7733;51.554;13.590;2023-05-07T06:52:37;7.27;;;6.77;;
15261;SDS011;7733;51.554;13.590;2023-05-07T06:55:03;7.83;;;7.23;;
15261;SDS011;7733;51.554;13.590;2023-05-07T06:57:29;7.40;;;6.90;;
15261;SDS011;7733;51.554;13.590;2023-05-07T06:59:55;8.10;;;7.50;;
15261;SDS011;7733;51.554;13.590;2023-05-07T07:02:21;7.97;;;7.37;;
15261;SDS011;7733;51.554;13.590;2023-05-07T07:04:47;8.13;;;7.53;;
15261;SDS011;7733;51.554;13.590;2023-05-07T07:07:12;8.23;;;7.73;;
15261;SDS011;7733;51.554;13.590;2023-05-07T07:09:38;8.40;;;7.70;;
15261;SDS011;7733;51.554;13.590;2023-05-07T07:12:04;8.10;;;7.50;;
15261;SDS011;7733;51.554;13.590;2023-05-07T07:14:30;8.47;;;7.87;;
15261;SDS011;7733;51.554;13.590;2023-05-07T07:16:55;10.73;;;9.73;;
15261;SDS011;7733;51.554;13.590;2023-05-07T07:19:21;8.77;;;8.07;;
15261;SDS011;7733;51.554;13.590;2023-05-07T07:21:47;8.77;;;8.17;;
15261;SDS011;7733;51.554;13.590;2023-05-07T07:24:13;9.97;;;9.27;;
15261;SDS011;7733;51.554;13.590;2023-05-07T07:26:46;9.60;;;8.90;;
15261;SDS011;7733;51.554;13.590;2023-05-07T07:29:12;10.63;;;9.70;;
15261;SDS011;7733;51.554;13.590;2023-05-07T07:31:38;8.90;;;8.20;;
15261;SDS011;7733;51.554;13.590;2023-05-07T07:34:04;9.43;;;8.50;;
15261;SDS011;7733;51.554;13.590;2023-05-07T07:36:29;7.60;;;7.10;;
15261;SDS011;7733;51.554;13.590;2023-05-07T07:38:55;8.13;;;7.47;;
15261;SDS011;7733;51.554;13.590;2023-05-07T07:41:21;7.70;;;7.20;;
15261;SDS011;7733;51.554;13.590;2023-05-07T07:43:46;7.30;;;6.80;;
15261;SDS011;7733;51.554;13.590;2023-05-07T07:46:12;8.93;;;8.23;;
15261;SDS011;7733;51.554;13.590;2023-05-07T07:48:38;9.27;;;8.67;;
15261;SDS011;7733;51.554;13.590;2023-05-07T07:51:04;7.80;;;7.20;;
15261;SDS011;7733;51.554;13.590;2023-05-07T07:53:30;7.40;;;7.00;;
15261;SDS011;7733;51.554;13.590;2023-05-07T07:55:56;7.13;;;6.73;;
15261;SDS011;7733;51.554;13.590;2023-05-07T07:58:21;7.77;;;7.27;;
15261;SDS011;7733;51.554;13.590;2023-05-07T08:00:48;7.63;;;6.90;;
15261;SDS011;7733;51.554;13.590;2023-05-07T08:03:14;7.47;;;6.77;;
15261;SDS011;7733;51.554;13.590;2023-05-07T08:05:41;6.83;;;6.43;;
15261;SDS011;7733;51.554;13.590;2023-05-07T08:08:08;7.10;;;6.60;;
15261;SDS011;7733;51.554;13.590;2023-05-07T08:10:34;6.37;;;5.90;;
15261;SDS011;7733;51.554;13.590;2023-05-07T08:13:03;7.13;;;6.53;;
15261;SDS011;7733;51.554;13.590;2023-05-07T08:15:29;7.03;;;6.63;;
15261;SDS011;7733;51.554;13.590;2023-05-07T08:17:55;7.87;;;7.37;;
15261;SDS011;7733;51.554;13.590;2023-05-07T08:20:25;7.43;;;6.93;;
15261;SDS011;7733;51.554;13.590;2023-05-07T08:22:51;9.63;;;8.93;;
15261;SDS011;7733;51.554;13.590;2023-05-07T08:25:17;8.70;;;8.10;;
15261;SDS011;7733;51.554;13.590;2023-05-07T08:27:42;8.80;;;8.20;;
15261;SDS011;7733;51.554;13.590;2023-05-07T08:30:09;9.60;;;8.93;;
15261;SDS011;7733;51.554;13.590;2023-05-07T08:32:36;10.13;;;9.13;;
15261;SDS011;7733;51.554;13.590;2023-05-07T08:35:02;8.60;;;7.93;;
15261;SDS011;7733;51.554;13.590;2023-05-07T08:37:28;8.73;;;8.13;;
15261;SDS011;7733;51.554;13.590;2023-05-07T08:39:54;9.40;;;8.80;;
15261;SDS011;7733;51.554;13.590;2023-05-07T08:42:19;9.67;;;8.97;;
15261;SDS011;7733;51.554;13.590;2023-05-07T08:44:50;9.70;;;9.00;;
15261;SDS011;7733;51.554;13.590;2023-05-07T08:47:19;10.23;;;9.60;;
15261;SDS011;7733;51.554;13.590;2023-05-07T08:49:52;11.20;;;10.47;;
15261;SDS011;7733;51.554;13.590;2023-05-07T08:52:19;12.07;;;11.17;;
15261;SDS011;7733;51.554;13.590;2023-05-07T08:54:45;10.30;;;9.50;;
15261;SDS011;7733;51.554;13.590;2023-05-07T08:57:12;10.00;;;9.30;;
15261;SDS011;7733;51.554;13.590;2023-05-07T08:59:38;9.80;;;9.10;;
15261;SDS011;7733;51.554;13.590;2023-05-07T09:02:05;10.87;;;10.07;;
15261;SDS011;7733;51.554;13.590;2023-05-07T09:04:35;10.53;;;9.83;;
15261;SDS011;7733;51.554;13.590;2023-05-07T09:07:00;9.60;;;8.80;;
15261;SDS011;7733;51.554;13.590;2023-05-07T09:09:31;7.93;;;7.43;;
15261;SDS011;7733;51.554;13.590;2023-05-07T09:11:58;8.23;;;7.63;;
15261;SDS011;7733;51.554;13.590;2023-05-07T09:14:25;8.80;;;8.20;;
15261;SDS011;7733;51.554;13.590;2023-05-07T09:16:53;8.37;;;7.67;;
15261;SDS011;7733;51.554;13.590;2023-05-07T09:19:23;8.40;;;7.77;;
15261;SDS011;7733;51.554;13.590;2023-05-07T09:21:49;8.37;;;7.87;;
15261;SDS011;7733;51.554;13.590;2023-05-07T09:24:23;9.17;;;8.47;;
15261;SDS011;7733;51.554;13.590;2023-05-07T09:26:49;8.97;;;8.37;;
15261;SDS011;7733;51.554;13.590;2023-05-07T09:29:15;9.10;;;8.50;;
15261;SDS011;7733;51.554;13.590;2023-05-07T09:31:42;9.83;;;9.13;;
15261;SDS011;7733;51.554;13.590;2023-05-07T09:34:07;10.10;;;9.40;;
15261;SDS011;7733;51.554;13.590;2023-05-07T09:36:33;9.10;;;8.50;;
15261;SDS011;7733;51.554;13.590;2023-05-07T09:39:00;9.10;;;8.50;;
15261;SDS011;7733;51.554;13.590;2023-05-07T09:41:25;9.63;;;8.83;;
15261;SDS011;7733;51.554;13.590;2023-05-07T09:43:54;9.50;;;8.87;;
15261;SDS011;7733;51.554;13.590;2023-05-07T09:46:23;9.50;;;8.90;;
15261;SDS011;7733;51.554;13.590;2023-05-07T09:48:55;9.73;;;9.03;;
15261;SDS011;7733;51.554;13.590;2023-05-07T09:51:57;10.10;;;9.30;;
15261;SDS011;7733;51.554;13.590;2023-05-07T09:54:18;7.60;;;7.10;;
15261;SDS011;7733;51.554;13.590;2023-05-07T09:56:44;8.70;;;8.10;;
15261;SDS011;7733;51.554;13.590;2023-05-07T09:59:13;11.03;;;10.13;;
15261;SDS011;7733;51.554;13.590;2023-05-07T10:01:41;10.60;;;9.83;;
15261;SDS011;7733;51.554;13.590;2023-05-07T10:04:12;13.23;;;12.03;;
15261;SDS011;7733;51.554;13.590;2023-05-07T10:06:39;7.77;;;7.27;;
15261;SDS011;7733;51.554;13.590;2023-05-07T10:09:07;7.73;;;7.23;;
15261;SDS011;7733;51.554;13.590;2023-05-07T10:11:34;8.00;;;7.50;;
15261;SDS011;7733;51.554;13.590;2023-05-07T10:14:04;7.53;;;7.03;;
15261;SDS011;7733;51.554;13.590;2023-05-07T10:16:34;7.10;;;6.50;;
15261;SDS011;7733;51.554;13.590;2023-05-07T10:19:04;6.27;;;5.87;;
15261;SDS011;7733;51.554;13.590;2023-05-07T10:21:37;5.50;;;5.20;;
15261;SDS011;7733;51.554;13.590;2023-05-07T10:24:10;5.70;;;5.30;;
15261;SDS011;7733;51.554;13.590;2023-05-07T10:26:46;5.60;;;5.20;;
15261;SDS011;7733;51.554;13.590;2023-05-07T10:35:36;5.80;;;5.50;;
15261;SDS011;7733;51.554;13.590;2023-05-07T10:38:04;6.00;;;5.70;;
15261;SDS011;7733;51.554;13.590;2023-05-07T10:40:30;5.30;;;5.00;;
15261;SDS011;7733;51.554;13.590;2023-05-07T10:42:58;5.17;;;4.80;;
15261;SDS011;7733;51.554;13.590;2023-05-07T10:45:26;4.60;;;4.40;;
15261;SDS011;7733;51.554;13.590;2023-05-07T10:48:10;4.70;;;4.50;;
15261;SDS011;7733;51.554;13.590;2023-05-07T10:50:40;4.60;;;4.40;;
15261;SDS011;7733;51.554;13.590;2023-05-07T10:55:48;5.57;;;5.20;;
15261;SDS011;7733;51.554;13.590;2023-05-07T10:58:23;4.30;;;4.00;;
15261;SDS011;7733;51.554;13.590;2023-05-07T11:00:55;4.00;;;3.80;;
15261;SDS011;7733;51.554;13.590;2023-05-07T11:03:27;3.83;;;3.70;;
15261;SDS011;7733;51.554;13.590;2023-05-07T11:06:13;4.10;;;3.90;;
15261;SDS011;7733;51.554;13.590;2023-05-07T11:08:56;4.10;;;3.90;;
15261;SDS011;7733;51.554;13.590;2023-05-07T11:17:09;4.30;;;4.10;;
15261;SDS011;7733;51.554;13.590;2023-05-07T11:19:48;4.43;;;4.10;;
15261;SDS011;7733;51.554;13.590;2023-05-07T11:25:01;2.63;;;2.53;;
15261;SDS011;7733;51.554;13.590;2023-05-07T11:27:29;2.70;;;2.50;;
15261;SDS011;7733;51.554;13.590;2023-05-07T11:29:55;3.30;;;3.17;;
15261;SDS011;7733;51.554;13.590;2023-05-07T11:34:55;2.87;;;2.77;;
15261;SDS011;7733;51.554;13.590;2023-05-07T11:37:23;3.07;;;2.90;;
15261;SDS011;7733;51.554;13.590;2023-05-07T11:40:01;2.43;;;2.40;;
15261;SDS011;7733;51.554;13.590;2023-05-07T11:42:32;2.63;;;2.53;;
15261;SDS011;7733;51.554;13.590;2023-05-07T11:44:59;2.70;;;2.60;;
15261;SDS011;7733;51.554;13.590;2023-05-07T11:47:26;2.30;;;2.20;;
15261;SDS011;7733;51.554;13.590;2023-05-07T11:49:56;2.37;;;2.27;;
15261;SDS011;7733;51.554;13.590;2023-05-07T11:52:26;2.60;;;2.43;;
15261;SDS011;7733;51.554;13.590;2023-05-07T11:54:53;2.07;;;2.07;;
15261;SDS011;7733;51.554;13.590;2023-05-07T11:57:22;2.60;;;2.50;;
15261;SDS011;7733;51.554;13.590;2023-05-07T11:59:56;2.33;;;2.13;;
15261;SDS011;7733;51.554;13.590;2023-05-07T12:02:24;2.70;;;2.60;;
15261;SDS011;7733;51.554;13.590;2023-05-07T12:04:51;2.70;;;2.50;;
15261;SDS011;7733;51.554;13.590;2023-05-07T12:07:17;4.70;;;4.40;;
15261;SDS011;7733;51.554;13.590;2023-05-07T12:09:44;5.10;;;4.80;;
15261;SDS011;7733;51.554;13.590;2023-05-07T12:12:11;15.03;;;13.77;;
15261;SDS011;7733;51.554;13.590;2023-05-07T12:14:40;14.97;;;13.87;;
15261;SDS011;7733;51.554;13.590;2023-05-07T12:17:08;9.23;;;8.63;;
15261;SDS011;7733;51.554;13.590;2023-05-07T12:19:36;3.57;;;3.47;;
15261;SDS011;7733;51.554;13.590;2023-05-07T12:22:04;2.63;;;2.53;;
15261;SDS011;7733;51.554;13.590;2023-05-07T12:24:45;2.30;;;2.20;;
15261;SDS011;7733;51.554;13.590;2023-05-07T12:27:28;2.93;;;2.83;;
15261;SDS011;7733;51.554;13.590;2023-05-07T12:29:56;3.10;;;2.90;;
15261;SDS011;7733;51.554;13.590;2023-05-07T12:32:24;4.07;;;3.77;;
15261;SDS011;7733;51.554;13.590;2023-05-07T12:34:50;3.80;;;3.63;;
15261;SDS011;7733;51.554;13.590;2023-05-07T12:37:16;3.60;;;3.50;;
15261;SDS011;7733;51.554;13.590;2023-05-07T12:39:48;3.77;;;3.57;;
15261;SDS011;7733;51.554;13.590;2023-05-07T12:42:32;3.93;;;3.73;;
15261;SDS011;7733;51.554;13.590;2023-05-07T12:45:07;3.60;;;3.40;;
15261;SDS011;7733;51.554;13.590;2023-05-07T12:47:37;3.80;;;3.70;;
15261;SDS011;7733;51.554;13.590;2023-05-07T12:50:06;4.10;;;3.90;;
15261;SDS011;7733;51.554;13.590;2023-05-07T12:52:33;4.30;;;4.00;;
15261;SDS011;7733;51.554;13.590;2023-05-07T12:55:05;4.20;;;4.00;;
15261;SDS011;7733;51.554;13.590;2023-05-07T12:57:42;3.73;;;3.63;;
15261;SDS011;7733;51.554;13.590;2023-05-07T13:00:15;3.37;;;3.20;;
15261;SDS011;7733;51.554;13.590;2023-05-07T13:02:42;3.60;;;3.33;;
15261;SDS011;7733;51.554;13.590;2023-05-07T13:05:12;3.30;;;3.20;;
15261;SDS011;7733;51.554;13.590;2023-05-07T13:07:38;4.03;;;3.83;;
15261;SDS011;7733;51.554;13.590;2023-05-07T13:10:05;3.97;;;3.80;;
15261;SDS011;7733;51.554;13.590;2023-05-07T13:12:32;4.00;;;3.80;;
15261;SDS011;7733;51.554;13.590;2023-05-07T13:14:57;4.07;;;3.90;;
15261;SDS011;7733;51.554;13.590;2023-05-07T13:17:24;3.70;;;3.50;;
15261;SDS011;7733;51.554;13.590;2023-05-07T13:19:49;3.97;;;3.77;;
15261;SDS011;7733;51.554;13.590;2023-05-07T13:22:15;4.10;;;3.90;;
15261;SDS011;7733;51.554;13.590;2023-05-07T13:24:41;3.97;;;3.77;;
15261;SDS011;7733;51.554;13.590;2023-05-07T13:27:08;4.53;;;4.23;;
15261;SDS011;7733;51.554;13.590;2023-05-07T13:29:34;4.23;;;4.03;;
15261;SDS011;7733;51.554;13.590;2023-05-07T13:32:00;4.90;;;4.60;;
15261;SDS011;7733;51.554;13.590;2023-05-07T13:34:26;4.23;;;4.03;;
15261;SDS011;7733;51.554;13.590;2023-05-07T13:36:53;4.63;;;4.43;;
15261;SDS011;7733;51.554;13.590;2023-05-07T13:39:19;4.27;;;4.07;;
15261;SDS011;7733;51.554;13.590;2023-05-07T13:41:45;4.50;;;4.30;;
15261;SDS011;7733;51.554;13.590;2023-05-07T13:44:10;5.83;;;5.37;;
15261;SDS011;7733;51.554;13.590;2023-05-07T13:46:36;6.23;;;5.93;;
15261;SDS011;7733;51.554;13.590;2023-05-07T13:49:02;4.80;;;4.53;;
15261;SDS011;7733;51.554;13.590;2023-05-07T13:51:27;4.37;;;4.17;;
15261;SDS011;7733;51.554;13.590;2023-05-07T13:53:53;4.70;;;4.40;;
15261;SDS011;7733;51.554;13.590;2023-05-07T13:56:19;5.10;;;4.63;;
15261;SDS011;7733;51.554;13.590;2023-05-07T13:58:46;4.70;;;4.50;;
15261;SDS011;7733;51.554;13.590;2023-05-07T14:01:11;4.27;;;4.07;;
15261;SDS011;7733;51.554;13.590;2023-05-07T14:03:37;4.57;;;4.33;;
15261;SDS011;7733;51.554;13.590;2023-05-07T14:06:04;4.60;;;4.30;;
15261;SDS011;7733;51.554;13.590;2023-05-07T14:08:30;5.03;;;4.60;;
15261;SDS011;7733;51.554;13.590;2023-05-07T14:10:56;5.43;;;5.00;;
15261;SDS011;7733;51.554;13.590;2023-05-07T14:13:22;6.13;;;5.73;;
15261;SDS011;7733;51.554;13.590;2023-05-07T14:15:47;7.97;;;7.47;;
15261;SDS011;7733;51.554;13.590;2023-05-07T14:18:14;7.43;;;6.83;;
15261;SDS011;7733;51.554;13.590;2023-05-07T14:20:40;6.13;;;5.73;;
15261;SDS011;7733;51.554;13.590;2023-05-07T14:23:08;5.80;;;5.50;;
15261;SDS011;7733;51.554;13.590;2023-05-07T14:25:34;5.53;;;5.30;;
15261;SDS011;7733;51.554;13.590;2023-05-07T14:28:00;5.83;;;5.53;;
15261;SDS011;7733;51.554;13.590;2023-05-07T14:30:26;6.73;;;6.33;;
15261;SDS011;7733;51.554;13.590;2023-05-07T14:32:51;9.83;;;9.03;;
15261;SDS011;7733;51.554;13.590;2023-05-07T14:35:17;8.23;;;7.70;;
15261;SDS011;7733;51.554;13.590;2023-05-07T14:37:43;8.10;;;7.57;;
15261;SDS011;7733;51.554;13.590;2023-05-07T14:40:09;6.97;;;6.37;;
15261;SDS011;7733;51.554;13.590;2023-05-07T14:42:35;7.43;;;6.93;;
15261;SDS011;7733;51.554;13.590;2023-05-07T14:45:01;6.33;;;5.93;;
15261;SDS011;7733;51.554;13.590;2023-05-07T14:47:27;8.37;;;7.13;;
15261;SDS011;7733;51.554;13.590;2023-05-07T14:49:53;6.40;;;5.90;;
15261;SDS011;7733;51.554;13.590;2023-05-07T14:52:19;5.60;;;5.30;;
15261;SDS011;7733;51.554;13.590;2023-05-07T14:54:45;7.20;;;6.43;;
15261;SDS011;7733;51.554;13.590;2023-05-07T14:57:13;5.80;;;5.40;;
15261;SDS011;7733;51.554;13.590;2023-05-07T14:59:41;7.90;;;7.37;;
15261;SDS011;7733;51.554;13.590;2023-05-07T15:02:07;5.03;;;4.60;;
15261;SDS011;7733;51.554;13.590;2023-05-07T15:04:34;4.53;;;4.27;;